createdAt,value
2019-01-04T00:00:43.891Z,5.50
2019-01-04T00:03:13.512Z,5.30
2019-01-04T00:05:43.222Z,4.63
2019-01-04T00:08:12.801Z,4.40
2019-01-04T00:10:42.355Z,5.40
2019-01-04T00:13:11.924Z,4.80
2019-01-04T00:15:41.441Z,4.73
2019-01-04T00:18:10.812Z,4.97
2019-01-04T00:20:40.290Z,4.87
2019-01-04T00:23:09.814Z,5.87
2019-01-04T00:25:39.195Z,4.73
2019-01-04T00:28:08.593Z,5.70
2019-01-04T00:30:38.455Z,5.30
2019-01-04T00:33:08.041Z,4.43
2019-01-04T00:35:37.415Z,4.97
2019-01-04T00:38:07.084Z,4.93
2019-01-04T00:40:36.566Z,5.17
2019-01-04T00:43:06.049Z,5.53
2019-01-04T00:45:35.591Z,4.63
2019-01-04T00:48:05.068Z,4.30
2019-01-04T00:50:34.580Z,4.30
2019-01-04T00:53:04.112Z,5.47
2019-01-04T00:56:12.376Z,5.27
2019-01-04T00:59:20.847Z,4.90
2019-01-04T01:02:49.382Z,4.33
2019-01-04T01:06:01.553Z,5.43
2019-01-04T01:09:11.863Z,5.87
2019-01-04T01:12:19.323Z,4.57
2019-01-04T01:15:29.709Z,5.93
2019-01-04T01:18:28.870Z,6.07
2019-01-04T01:21:38.366Z,5.50
2019-01-04T01:24:50.003Z,6.70
2019-01-04T01:27:58.200Z,4.63
2019-01-04T01:31:05.726Z,4.97
2019-01-04T01:34:00.073Z,6.07
2019-01-04T01:37:36.272Z,5.20
2019-01-04T01:40:44.674Z,4.93
2019-01-04T01:43:33.519Z,5.17
2019-01-04T01:46:34.551Z,4.90
2019-01-04T01:49:32.258Z,4.30
2019-01-04T01:52:19.053Z,5.13
2019-01-04T01:54:48.614Z,4.90
2019-01-04T01:57:18.002Z,5.37
2019-01-04T01:59:47.542Z,4.17
2019-01-04T02:02:18.094Z,4.77
2019-01-04T02:04:47.587Z,4.77
2019-01-04T02:07:16.989Z,4.50
2019-01-04T02:09:46.734Z,4.87
2019-01-04T02:12:16.208Z,4.87
2019-01-04T02:14:45.687Z,5.43
2019-01-04T02:17:15.357Z,5.17
2019-01-04T02:19:44.739Z,4.80
2019-01-04T02:22:14.230Z,4.47
2019-01-04T02:24:43.751Z,4.93
2019-01-04T02:27:13.241Z,4.70
2019-01-04T02:29:42.704Z,4.53
2019-01-04T02:32:12.375Z,5.17
2019-01-04T02:34:41.774Z,5.03
2019-01-04T02:37:11.362Z,4.83
2019-01-04T02:39:41.132Z,5.07
2019-01-04T02:42:10.525Z,5.10
2019-01-04T02:44:39.916Z,5.07
2019-01-04T02:47:09.731Z,5.10
2019-01-04T02:49:40.260Z,5.10
2019-01-04T02:52:09.674Z,5.23
2019-01-04T02:54:39.097Z,5.87
2019-01-04T02:57:08.537Z,5.23
2019-01-04T02:59:38.377Z,5.90
2019-01-04T03:02:09.760Z,6.03
2019-01-04T03:04:39.202Z,5.27
2019-01-04T03:07:08.978Z,5.30
2019-01-04T03:09:38.375Z,5.10
2019-01-04T03:12:07.841Z,5.53
2019-01-04T03:14:37.553Z,6.63
2019-01-04T03:17:07.032Z,4.37
2019-01-04T03:19:36.456Z,5.10
2019-01-04T03:22:06.156Z,6.70
2019-01-04T03:24:35.653Z,6.07
2019-01-04T03:27:05.081Z,6.20
2019-01-04T03:29:34.822Z,8.47
2019-01-04T03:32:04.368Z,7.30
2019-01-04T03:34:35.109Z,4.63
2019-01-04T03:37:04.841Z,4.17
2019-01-04T03:39:34.239Z,5.10
2019-01-04T03:42:03.767Z,4.60
2019-01-04T03:44:33.313Z,4.97
2019-01-04T03:47:02.697Z,6.10
2019-01-04T03:49:32.191Z,4.77
2019-01-04T03:52:01.859Z,4.83
2019-01-04T03:54:31.280Z,5.00
2019-01-04T03:57:00.781Z,5.03
2019-01-04T03:59:30.614Z,4.30
2019-01-04T04:02:00.103Z,4.13
2019-01-04T04:04:29.784Z,4.93
2019-01-04T04:06:59.319Z,4.63
2019-01-04T04:09:29.293Z,4.60
2019-01-04T04:11:58.693Z,5.53
2019-01-04T04:14:28.465Z,5.43
2019-01-04T04:16:57.993Z,5.90
2019-01-04T04:19:27.474Z,6.37
2019-01-04T04:21:57.193Z,5.77
2019-01-04T04:24:26.720Z,5.07
2019-01-04T04:26:56.230Z,5.77
2019-01-04T04:29:25.997Z,5.57
2019-01-04T04:31:55.519Z,4.43
2019-01-04T04:34:25.023Z,4.83
2019-01-04T04:36:54.730Z,5.80
2019-01-04T04:39:24.122Z,5.13
2019-01-04T04:41:54.034Z,5.20
2019-01-04T04:44:23.561Z,4.73
2019-01-04T04:46:53.020Z,5.07
2019-01-04T04:49:22.410Z,5.33
2019-01-04T04:51:52.179Z,13.67
2019-01-04T04:54:21.671Z,8.50
2019-01-04T04:56:51.060Z,6.23
2019-01-04T04:59:21.300Z,5.17
2019-01-04T05:01:50.918Z,6.13
2019-01-04T05:04:20.668Z,5.23
2019-01-04T05:06:50.320Z,5.00
2019-01-04T05:09:19.835Z,5.77
2019-01-04T05:11:49.348Z,6.53
2019-01-04T05:14:19.078Z,5.30
2019-01-04T05:16:48.601Z,6.57
2019-01-04T05:19:18.096Z,8.67
2019-01-04T05:21:47.786Z,8.13
2019-01-04T05:24:17.245Z,6.60
2019-01-04T05:26:46.763Z,6.37
2019-01-04T05:29:16.528Z,6.33
2019-01-04T05:31:45.927Z,6.40
2019-01-04T05:34:15.301Z,5.17
2019-01-04T05:36:45.099Z,6.23
2019-01-04T05:39:14.587Z,5.40
2019-01-04T05:41:43.969Z,5.23
2019-01-04T05:44:13.733Z,6.63
2019-01-04T05:46:43.275Z,6.70
2019-01-04T05:49:12.771Z,5.77
2019-01-04T05:51:42.553Z,7.23
2019-01-04T05:54:11.948Z,6.43
2019-01-04T05:56:41.429Z,6.33
2019-01-04T05:59:11.379Z,5.60
2019-01-04T06:01:40.855Z,6.23
2019-01-04T06:04:10.267Z,6.23
2019-01-04T06:06:40.094Z,5.63
2019-01-04T06:09:10.099Z,6.03
2019-01-04T06:11:39.505Z,5.83
2019-01-04T06:14:09.546Z,5.57
2019-01-04T06:16:39.023Z,5.83
2019-01-04T06:19:08.540Z,5.70
2019-01-04T06:21:38.142Z,5.80
2019-01-04T06:24:08.101Z,5.57
2019-01-04T06:26:37.649Z,8.23
2019-01-04T06:29:07.316Z,6.87
2019-01-04T06:31:36.866Z,7.50
2019-01-04T06:34:06.397Z,6.60
2019-01-04T06:36:36.230Z,9.43
2019-01-04T06:39:07.913Z,7.93
2019-01-04T06:41:37.446Z,11.67
2019-01-04T06:44:07.307Z,8.87
2019-01-04T06:46:57.165Z,12.07
2019-01-04T06:49:26.897Z,8.67
2019-01-04T06:51:56.435Z,8.47
2019-01-04T06:55:01.725Z,7.97
2019-01-04T06:57:31.155Z,8.30
2019-01-04T07:00:00.583Z,9.00
2019-01-04T07:02:30.596Z,8.13
2019-01-04T07:05:00.353Z,9.17
2019-01-04T07:07:29.769Z,8.20
2019-01-04T07:09:59.700Z,9.43
2019-01-04T07:12:29.136Z,9.20
2019-01-04T07:14:58.569Z,9.40
2019-01-04T07:17:28.426Z,8.93
2019-01-04T07:19:57.959Z,8.20
2019-01-04T07:22:27.381Z,7.67
2019-01-04T07:24:57.024Z,6.40
2019-01-04T07:27:26.621Z,7.13
2019-01-04T07:29:56.126Z,6.63
2019-01-04T07:32:25.786Z,5.97
2019-01-04T07:34:55.185Z,6.37
2019-01-04T07:37:24.739Z,6.27
2019-01-04T07:39:54.387Z,7.63
2019-01-04T07:42:23.950Z,5.93
2019-01-04T07:44:53.419Z,6.40
2019-01-04T07:47:23.521Z,6.13
2019-01-04T07:49:54.540Z,6.07
2019-01-04T07:52:24.197Z,6.37
2019-01-04T07:55:00.338Z,5.60
2019-01-04T07:57:30.094Z,6.77
2019-01-04T08:00:01.434Z,7.70
2019-01-04T08:02:36.868Z,9.67
2019-01-04T08:05:08.475Z,8.93
2019-01-04T08:07:37.966Z,7.60
2019-01-04T08:10:17.820Z,6.37
2019-01-04T08:12:47.618Z,6.83
2019-01-04T08:15:17.304Z,7.00
2019-01-04T08:17:47.203Z,6.93
2019-01-04T08:20:16.786Z,7.47
2019-01-04T08:22:49.668Z,12.40
2019-01-04T08:25:19.580Z,7.23
2019-01-04T08:27:49.074Z,7.10
2019-01-04T08:30:20.118Z,8.17
2019-01-04T08:32:49.939Z,11.70
2019-01-04T08:35:19.384Z,7.27
2019-01-04T08:37:49.028Z,5.90
2019-01-04T08:40:19.316Z,5.63
2019-01-04T08:42:49.254Z,5.43
2019-01-04T08:45:19.237Z,6.17
2019-01-04T08:47:49.162Z,8.83
2019-01-04T08:50:18.700Z,7.03
2019-01-04T08:52:48.576Z,7.33
2019-01-04T08:55:27.185Z,9.97
2019-01-04T08:57:56.708Z,11.83
2019-01-04T09:00:26.250Z,12.43
2019-01-04T09:02:56.009Z,8.53
2019-01-04T09:05:25.531Z,7.30
2019-01-04T09:07:55.079Z,7.40
2019-01-04T09:10:24.537Z,7.93
2019-01-04T09:12:54.113Z,5.80
2019-01-04T09:15:23.720Z,7.10
2019-01-04T09:17:53.202Z,7.53
2019-01-04T09:20:22.642Z,7.27
2019-01-04T09:22:52.134Z,7.27
2019-01-04T09:25:21.697Z,8.83
2019-01-04T09:27:51.132Z,7.67
2019-01-04T09:30:20.558Z,7.07
2019-01-04T09:32:50.364Z,8.87
2019-01-04T09:35:19.877Z,16.10
2019-01-04T09:37:49.356Z,9.33
2019-01-04T09:40:20.148Z,10.60
2019-01-04T09:42:49.962Z,8.63
2019-01-04T09:45:19.448Z,10.07
2019-01-04T09:47:49.113Z,15.93
2019-01-04T09:50:18.619Z,9.20
2019-01-04T09:52:48.070Z,8.83
2019-01-04T09:55:17.857Z,10.60
2019-01-04T09:57:47.419Z,12.13
2019-01-04T10:00:16.958Z,8.10
2019-01-04T10:02:46.441Z,8.00
2019-01-04T10:05:15.921Z,10.17
2019-01-04T10:07:46.081Z,15.13
2019-01-04T10:10:15.636Z,11.63
2019-01-04T10:12:45.182Z,12.43
2019-01-04T10:15:16.616Z,16.70
2019-01-04T10:17:46.465Z,15.13
2019-01-04T10:20:15.985Z,10.40
2019-01-04T10:22:45.431Z,9.97
2019-01-04T10:25:15.080Z,8.67
2019-01-04T10:27:44.570Z,7.93
2019-01-04T10:30:29.514Z,7.10
2019-01-04T10:32:59.093Z,7.00
2019-01-04T10:35:28.630Z,7.60
2019-01-04T10:37:58.356Z,8.13
2019-01-04T10:40:27.848Z,9.17
2019-01-04T10:42:57.398Z,8.57
2019-01-04T10:45:27.200Z,8.70
2019-01-04T10:47:57.193Z,9.23
2019-01-04T10:50:28.906Z,9.40
2019-01-04T10:52:58.699Z,9.23
2019-01-04T10:55:28.278Z,8.93
2019-01-04T10:57:57.726Z,7.97
2019-01-04T11:00:27.509Z,8.93
2019-01-04T11:02:57.059Z,7.40
2019-01-04T11:05:26.588Z,7.33
2019-01-04T11:07:56.287Z,8.93
2019-01-04T11:10:25.730Z,8.43
2019-01-04T11:12:56.661Z,8.27
2019-01-04T11:15:26.631Z,8.10
2019-01-04T11:17:56.114Z,9.07
2019-01-04T11:20:51.142Z,8.00
2019-01-04T11:24:05.822Z,7.63
2019-01-04T11:27:08.274Z,8.40
2019-01-04T11:30:10.070Z,8.83
2019-01-04T11:33:12.276Z,7.30
2019-01-04T11:36:27.738Z,7.83
2019-01-04T11:39:42.169Z,7.40
2019-01-04T11:42:31.745Z,6.73
2019-01-04T11:45:24.273Z,8.03
2019-01-04T11:48:30.408Z,7.10
2019-01-04T11:51:56.234Z,7.73
2019-01-04T11:54:28.553Z,7.40
2019-01-04T11:56:58.085Z,6.70
2019-01-04T11:59:27.770Z,7.13
2019-01-04T12:01:57.302Z,10.77
2019-01-04T12:04:26.828Z,9.07
2019-01-04T12:06:56.752Z,8.80
2019-01-04T12:09:26.195Z,8.00
2019-01-04T12:11:55.621Z,9.07
2019-01-04T12:14:26.672Z,9.57
2019-01-04T12:16:56.244Z,8.60
2019-01-04T12:19:25.676Z,7.60
2019-01-04T12:21:55.180Z,9.23
2019-01-04T12:24:24.724Z,6.63
2019-01-04T12:26:54.270Z,7.87
2019-01-04T12:29:23.757Z,8.13
2019-01-04T12:31:53.133Z,7.73
2019-01-04T12:34:22.667Z,8.40
2019-01-04T12:36:52.355Z,12.30
2019-01-04T12:39:21.883Z,8.40
2019-01-04T12:41:51.460Z,8.37
2019-01-04T12:44:20.949Z,9.33
2019-01-04T12:46:50.385Z,8.37
2019-01-04T12:49:19.915Z,7.87
2019-01-04T12:51:49.478Z,6.83
2019-01-04T12:54:18.900Z,6.23
2019-01-04T12:56:48.377Z,6.13
2019-01-04T12:59:17.956Z,5.33
2019-01-04T13:01:47.507Z,5.77
2019-01-04T13:04:16.920Z,5.67
2019-01-04T13:06:46.410Z,5.67
2019-01-04T13:09:15.948Z,6.70
2019-01-04T13:11:45.498Z,7.00
2019-01-04T13:14:15.036Z,6.20
2019-01-04T13:16:45.739Z,6.60
2019-01-04T13:19:15.218Z,6.17
2019-01-04T13:21:44.988Z,5.53
2019-01-04T13:24:14.510Z,6.10
2019-01-04T13:26:44.037Z,6.93
2019-01-04T13:29:13.614Z,5.83
2019-01-04T13:31:43.062Z,6.37
2019-01-04T13:34:12.550Z,7.27
2019-01-04T13:36:42.329Z,6.77
2019-01-04T13:39:14.256Z,7.07
2019-01-04T13:41:43.645Z,5.80
2019-01-04T13:44:13.195Z,6.60
2019-01-04T13:46:42.716Z,6.07
2019-01-04T13:49:12.200Z,6.03
2019-01-04T13:51:41.879Z,9.60
2019-01-04T13:54:11.523Z,12.30
2019-01-04T13:56:41.324Z,11.20
2019-01-04T13:59:11.191Z,6.80
2019-01-04T14:01:40.722Z,6.20
2019-01-04T14:04:10.168Z,6.43
2019-01-04T14:06:40.199Z,5.50
2019-01-04T14:09:09.974Z,5.83
2019-01-04T14:11:39.516Z,6.30
2019-01-04T14:14:09.253Z,8.17
2019-01-04T14:16:38.684Z,7.43
2019-01-04T14:19:08.568Z,7.30
2019-01-04T14:21:38.567Z,8.63
2019-01-04T14:24:07.948Z,7.53
2019-01-04T14:26:37.387Z,8.47
2019-01-04T14:29:07.055Z,8.20
2019-01-04T14:31:36.559Z,8.30
2019-01-04T14:34:06.029Z,7.30
2019-01-04T14:36:35.948Z,8.10
2019-01-04T14:39:07.728Z,7.20
2019-01-04T14:41:37.216Z,7.27
2019-01-04T14:44:06.755Z,8.33
2019-01-04T14:46:36.546Z,7.80
2019-01-04T14:49:06.016Z,8.60
2019-01-04T14:51:37.291Z,8.03
2019-01-04T14:54:06.806Z,8.60
2019-01-04T14:56:36.563Z,9.27
2019-01-04T14:59:06.407Z,8.63
2019-01-04T15:01:35.894Z,9.30
2019-01-04T15:04:05.544Z,9.43
2019-01-04T15:06:35.098Z,11.37
2019-01-04T15:09:05.521Z,11.80
2019-01-04T15:11:36.370Z,13.57
2019-01-04T15:14:05.919Z,15.90
2019-01-04T15:16:35.302Z,13.90
2019-01-04T15:19:04.825Z,11.07
2019-01-04T15:21:34.666Z,12.20
2019-01-04T15:24:04.135Z,12.73
2019-01-04T15:26:33.632Z,12.37
2019-01-04T15:29:03.476Z,11.67
2019-01-04T15:31:33.160Z,11.43
2019-01-04T15:34:02.633Z,12.17
2019-01-04T15:36:32.411Z,11.20
2019-01-04T15:39:01.927Z,11.60
2019-01-04T15:41:31.586Z,13.40
2019-01-04T15:44:01.397Z,9.73
2019-01-04T15:46:30.843Z,10.90
2019-01-04T15:49:00.482Z,10.73
2019-01-04T15:51:30.347Z,11.33
2019-01-04T15:53:59.840Z,11.27
2019-01-04T15:56:29.376Z,11.27
2019-01-04T15:58:59.230Z,10.97
2019-01-04T16:01:28.742Z,11.30
2019-01-04T16:03:58.270Z,9.57
2019-01-04T16:06:27.999Z,10.50
2019-01-04T16:08:57.894Z,10.93
2019-01-04T16:11:27.412Z,12.50
2019-01-04T16:13:57.340Z,10.00
2019-01-04T16:16:27.436Z,11.93
2019-01-04T16:18:56.864Z,11.63
2019-01-04T16:21:26.571Z,12.07
2019-01-04T16:23:56.244Z,10.37
2019-01-04T16:26:25.744Z,12.43
2019-01-04T16:28:55.448Z,12.40
2019-01-04T16:31:24.982Z,11.80
2019-01-04T16:33:54.585Z,13.10
2019-01-04T16:36:26.442Z,11.80
2019-01-04T16:38:55.956Z,13.40
2019-01-04T16:41:25.380Z,12.80
2019-01-04T16:43:55.272Z,13.97
2019-01-04T16:46:25.128Z,16.10
2019-01-04T16:48:55.280Z,17.67
2019-01-04T16:51:24.952Z,13.83
2019-01-04T16:53:54.475Z,14.97
2019-01-04T16:56:24.007Z,14.73
2019-01-04T16:58:53.689Z,16.43
2019-01-04T17:01:23.119Z,18.27
2019-01-04T17:03:52.799Z,15.70
2019-01-04T17:06:22.632Z,16.50
2019-01-04T17:08:52.067Z,20.17
2019-01-04T17:11:22.430Z,18.73
2019-01-04T17:13:52.282Z,19.07
2019-01-04T17:16:21.768Z,20.67
2019-01-04T17:18:51.309Z,19.57
2019-01-04T17:21:20.902Z,21.83
2019-01-04T17:23:50.299Z,31.20
2019-01-04T17:26:19.758Z,37.10
2019-01-04T17:28:49.537Z,43.17
2019-01-04T17:31:19.095Z,39.67
2019-01-04T17:33:48.826Z,34.57
2019-01-04T17:36:18.464Z,37.10
2019-01-04T17:38:48.386Z,33.80
2019-01-04T17:41:17.976Z,28.83
2019-01-04T17:43:47.629Z,30.73
2019-01-04T17:46:17.087Z,30.27
2019-01-04T17:48:48.909Z,33.57
2019-01-04T17:51:18.878Z,33.77
2019-01-04T17:53:48.334Z,32.37
2019-01-04T17:56:17.912Z,32.47
2019-01-04T17:58:47.814Z,35.17
2019-01-04T18:01:17.259Z,32.37
2019-01-04T18:03:46.809Z,44.83
2019-01-04T18:06:16.574Z,35.37
2019-01-04T18:08:45.999Z,41.77
2019-01-04T18:11:15.651Z,36.07
2019-01-04T18:13:46.657Z,32.67
2019-01-04T18:16:16.349Z,34.40
2019-01-04T18:18:45.785Z,35.03
2019-01-04T18:21:15.454Z,33.70
2019-01-04T18:23:45.007Z,34.50
2019-01-04T18:26:14.590Z,34.13
2019-01-04T18:28:44.373Z,36.17
2019-01-04T18:31:13.786Z,35.77
2019-01-04T18:33:43.314Z,37.00
2019-01-04T18:36:13.126Z,34.07
2019-01-04T18:38:42.647Z,32.83
2019-01-04T18:41:12.168Z,29.37
2019-01-04T18:43:41.666Z,32.40
2019-01-04T18:46:11.120Z,32.97
2019-01-04T18:48:40.658Z,31.27
2019-01-04T18:51:10.291Z,31.10
2019-01-04T18:53:39.725Z,34.27
2019-01-04T18:56:09.195Z,33.93
2019-01-04T18:58:38.983Z,32.13
2019-01-04T19:01:13.691Z,33.07
2019-01-04T19:03:39.712Z,33.87
2019-01-04T19:06:09.330Z,33.70
2019-01-04T19:08:38.868Z,35.53
2019-01-04T19:11:08.913Z,32.40
2019-01-04T19:13:38.947Z,33.47
2019-01-04T19:16:08.886Z,32.30
2019-01-04T19:18:38.421Z,32.83
2019-01-04T19:21:08.250Z,34.27
2019-01-04T19:23:39.633Z,38.67
2019-01-04T19:26:08.981Z,38.23
2019-01-04T19:28:39.001Z,33.27
2019-01-04T19:31:08.670Z,25.00
2019-01-04T19:33:38.111Z,25.90
2019-01-04T19:36:07.633Z,23.20
2019-01-04T19:38:37.170Z,25.33
2019-01-04T19:41:06.717Z,23.33
2019-01-04T19:43:36.400Z,21.20
2019-01-04T19:46:05.860Z,20.90
2019-01-04T19:48:35.366Z,20.63
2019-01-04T19:51:05.099Z,20.10
2019-01-04T19:53:34.525Z,20.17
2019-01-04T19:56:04.071Z,20.73
2019-01-04T19:58:33.573Z,20.07
2019-01-04T20:01:03.025Z,22.53
2019-01-04T20:03:32.541Z,23.60
2019-01-04T20:07:17.372Z,21.90
2019-01-04T20:10:39.602Z,21.10
2019-01-04T20:14:31.648Z,16.97
2019-01-04T20:17:18.855Z,17.27
2019-01-04T20:20:08.803Z,14.23
2019-01-04T20:23:03.043Z,14.37
2019-01-04T20:25:50.133Z,12.60
2019-01-04T20:28:38.563Z,11.93
2019-01-04T20:31:44.896Z,11.03
2019-01-04T20:34:31.404Z,9.67
2019-01-04T20:37:22.325Z,11.03
2019-01-04T20:40:29.010Z,10.33
2019-01-04T20:43:26.456Z,10.40
2019-01-04T20:46:13.322Z,8.37
2019-01-04T20:49:13.289Z,8.33
2019-01-04T20:52:07.789Z,8.30
2019-01-04T20:54:59.051Z,10.20
2019-01-04T20:57:46.310Z,8.53
2019-01-04T21:00:37.533Z,7.57
2019-01-04T21:03:28.455Z,8.00
2019-01-04T21:06:19.722Z,7.90
2019-01-04T21:09:06.196Z,7.87
2019-01-04T21:11:57.930Z,8.07
2019-01-04T21:14:46.627Z,8.87
2019-01-04T21:17:34.978Z,7.13
2019-01-04T21:20:22.633Z,8.30
2019-01-04T21:23:09.965Z,7.00
2019-01-04T21:26:07.203Z,6.83
2019-01-04T21:29:01.475Z,7.40
2019-01-04T21:31:49.814Z,8.17
2019-01-04T21:34:40.106Z,7.43
2019-01-04T21:37:26.999Z,7.60
2019-01-04T21:40:16.359Z,7.10
2019-01-04T21:43:03.192Z,7.40
2019-01-04T21:45:50.139Z,8.00
2019-01-04T21:48:36.627Z,7.17
2019-01-04T21:51:36.998Z,8.70
2019-01-04T21:54:23.874Z,7.10
2019-01-04T21:57:12.381Z,8.37
2019-01-04T22:00:09.740Z,6.47
2019-01-04T22:02:56.676Z,8.27
2019-01-04T22:05:43.850Z,7.67
2019-01-04T22:08:32.448Z,7.60
2019-01-04T22:11:39.291Z,6.93
2019-01-04T22:14:33.971Z,6.93
2019-01-04T22:17:22.814Z,7.60
2019-01-04T22:20:09.951Z,7.77
2019-01-04T22:22:56.739Z,7.10
2019-01-04T22:26:00.276Z,8.23
2019-01-04T22:28:54.504Z,8.00
2019-01-04T22:31:43.028Z,7.87
2019-01-04T22:34:33.965Z,7.53
2019-01-04T22:37:22.651Z,7.47
2019-01-04T22:40:10.991Z,7.57
2019-01-04T22:42:58.133Z,8.43
2019-01-04T22:45:52.394Z,8.60
2019-01-04T22:48:39.838Z,7.53
2019-01-04T22:51:26.627Z,8.47
2019-01-04T22:54:23.992Z,8.17
2019-01-04T22:57:18.302Z,8.13
2019-01-04T23:00:21.472Z,8.60
2019-01-04T23:03:08.314Z,8.10
2019-01-04T23:06:01.061Z,7.97
2019-01-04T23:08:47.859Z,8.83
2019-01-04T23:11:51.864Z,9.73
2019-01-04T23:14:39.200Z,8.70
2019-01-04T23:17:33.577Z,10.33
2019-01-04T23:20:22.431Z,8.17
2019-01-04T23:23:09.432Z,8.30
2019-01-04T23:25:56.521Z,6.97
2019-01-04T23:29:02.886Z,7.77
2019-01-04T23:31:49.952Z,7.40
2019-01-04T23:34:36.890Z,8.27
2019-01-04T23:37:25.345Z,9.03
2019-01-04T23:40:18.700Z,7.93
2019-01-04T23:43:05.512Z,6.83
2019-01-04T23:45:56.847Z,7.97
2019-01-04T23:48:47.884Z,8.27
2019-01-04T23:51:36.584Z,6.30
2019-01-04T23:54:23.502Z,7.97
2019-01-04T23:57:14.648Z,7.30
